createdAt,value
2019-05-26T00:00:09.759Z,11.39
2019-05-26T00:02:39.391Z,11.42
2019-05-26T00:05:09.695Z,11.43
2019-05-26T00:07:40.023Z,11.42
2019-05-26T00:10:10.272Z,11.40
2019-05-26T00:12:39.875Z,11.36
2019-05-26T00:15:09.891Z,11.32
2019-05-26T00:17:39.281Z,11.29
2019-05-26T00:20:08.908Z,11.25
2019-05-26T00:22:38.306Z,11.18
2019-05-26T00:25:08.683Z,11.14
2019-05-26T00:27:38.057Z,11.11
2019-05-26T00:30:08.473Z,11.12
2019-05-26T00:32:38.227Z,11.10
2019-05-26T00:35:08.032Z,11.10
2019-05-26T00:37:49.142Z,11.14
2019-05-26T00:40:09.966Z,11.17
2019-05-26T00:42:39.319Z,11.17
2019-05-26T00:45:09.424Z,11.18
2019-05-26T00:47:38.812Z,11.20
2019-05-26T00:50:08.938Z,11.20
2019-05-26T00:52:38.844Z,11.21
2019-05-26T00:55:08.825Z,11.21
2019-05-26T00:57:39.303Z,11.21
2019-05-26T01:00:12.184Z,11.21
2019-05-26T01:02:41.606Z,11.22
2019-05-26T01:05:11.731Z,11.22
2019-05-26T01:07:41.118Z,11.23
2019-05-26T01:10:10.728Z,11.23
2019-05-26T01:12:40.115Z,11.24
2019-05-26T01:15:10.922Z,11.27
2019-05-26T01:17:40.393Z,11.27
2019-05-26T01:20:10.503Z,11.30
2019-05-26T01:22:39.858Z,11.29
2019-05-26T01:25:09.287Z,11.28
2019-05-26T01:27:38.783Z,11.26
2019-05-26T01:30:10.074Z,11.25
2019-05-26T01:32:39.459Z,11.28
2019-05-26T01:35:09.800Z,11.29
2019-05-26T01:37:39.818Z,11.27
2019-05-26T01:40:09.528Z,11.26
2019-05-26T01:42:38.928Z,11.22
2019-05-26T01:45:08.747Z,11.19
2019-05-26T01:47:38.144Z,11.19
2019-05-26T01:50:08.114Z,11.20
2019-05-26T01:52:37.487Z,11.19
2019-05-26T01:55:07.098Z,11.16
2019-05-26T01:57:37.019Z,11.13
2019-05-26T02:00:09.384Z,11.12
2019-05-26T02:02:38.743Z,11.10
2019-05-26T02:05:08.336Z,11.08
2019-05-26T02:07:37.705Z,11.04
2019-05-26T02:10:10.397Z,10.98
2019-05-26T02:12:39.802Z,10.98
2019-05-26T02:15:09.602Z,10.92
2019-05-26T02:17:38.969Z,10.88
2019-05-26T02:20:08.890Z,10.87
2019-05-26T02:22:38.262Z,10.87
2019-05-26T02:25:09.094Z,10.82
2019-05-26T02:27:38.478Z,10.79
2019-05-26T02:30:09.841Z,10.81
2019-05-26T02:32:39.219Z,10.84
2019-05-26T02:35:09.347Z,10.84
2019-05-26T02:37:38.799Z,10.83
2019-05-26T02:40:10.262Z,10.83
2019-05-26T02:42:39.925Z,10.83
2019-05-26T02:45:11.372Z,10.84
2019-05-26T02:47:40.742Z,10.83
2019-05-26T02:50:11.980Z,10.79
2019-05-26T02:52:41.428Z,10.77
2019-05-26T02:55:10.948Z,10.75
2019-05-26T02:57:40.324Z,10.73
2019-05-26T03:00:11.454Z,10.68
2019-05-26T03:02:41.028Z,10.68
2019-05-26T03:05:11.979Z,10.70
2019-05-26T03:07:43.263Z,10.69
2019-05-26T03:10:14.804Z,10.69
2019-05-26T03:12:46.075Z,10.72
2019-05-26T03:15:17.095Z,10.73
2019-05-26T03:17:49.873Z,10.74
2019-05-26T03:20:19.667Z,10.75
2019-05-26T03:22:49.266Z,10.74
2019-05-26T03:25:18.702Z,10.76
2019-05-26T03:27:48.061Z,10.77
2019-05-26T03:30:17.541Z,10.76
2019-05-26T03:32:46.967Z,10.79
2019-05-26T03:35:16.427Z,10.78
2019-05-26T03:37:45.785Z,10.80
2019-05-26T03:40:15.310Z,10.80
2019-05-26T03:42:44.735Z,10.80
2019-05-26T03:45:19.626Z,10.81
2019-05-26T03:47:48.998Z,10.82
2019-05-26T03:50:18.383Z,10.84
2019-05-26T03:52:47.761Z,10.86
2019-05-26T03:55:17.212Z,10.87
2019-05-26T03:57:46.593Z,10.89
2019-05-26T04:00:17.092Z,10.92
2019-05-26T04:02:46.443Z,10.98
2019-05-26T04:05:15.836Z,11.01
2019-05-26T04:07:45.218Z,11.03
2019-05-26T04:10:15.035Z,11.06
2019-05-26T04:12:44.410Z,11.08
2019-05-26T04:15:13.948Z,11.11
2019-05-26T04:17:43.346Z,11.13
2019-05-26T04:20:12.990Z,11.16
2019-05-26T04:22:42.370Z,11.17
2019-05-26T04:25:12.075Z,11.17
2019-05-26T04:27:41.455Z,11.21
2019-05-26T04:30:11.164Z,11.24
2019-05-26T04:32:40.518Z,11.30
2019-05-26T04:35:10.300Z,11.32
2019-05-26T04:37:39.783Z,11.38
2019-05-26T04:40:25.567Z,11.43
2019-05-26T04:42:40.772Z,11.50
2019-05-26T04:45:10.411Z,11.55
2019-05-26T04:47:40.771Z,11.62
2019-05-26T04:50:10.700Z,11.68
2019-05-26T04:52:40.045Z,11.77
2019-05-26T04:55:10.653Z,11.83
2019-05-26T04:57:40.016Z,11.90
2019-05-26T05:00:09.940Z,11.97
2019-05-26T05:02:39.331Z,12.07
2019-05-26T05:05:09.935Z,12.18
2019-05-26T05:07:39.312Z,12.27
2019-05-26T05:10:08.750Z,12.46
2019-05-26T05:12:38.383Z,12.63
2019-05-26T05:15:08.509Z,12.63
2019-05-26T05:17:37.873Z,12.84
2019-05-26T05:20:08.971Z,12.84
2019-05-26T05:22:38.324Z,13.02
2019-05-26T05:25:14.726Z,13.12
2019-05-26T05:27:39.795Z,13.42
2019-05-26T05:30:11.219Z,13.42
2019-05-26T05:32:40.611Z,13.60
2019-05-26T05:35:11.137Z,13.87
2019-05-26T05:37:40.501Z,14.17
2019-05-26T05:40:11.019Z,14.30
2019-05-26T05:42:40.377Z,14.37
2019-05-26T05:45:10.197Z,14.34
2019-05-26T05:47:39.557Z,14.37
2019-05-26T05:50:09.854Z,14.40
2019-05-26T05:52:39.231Z,14.47
2019-05-26T05:55:09.146Z,14.61
2019-05-26T05:57:38.530Z,14.93
2019-05-26T06:00:09.311Z,15.40
2019-05-26T06:02:38.748Z,15.93
2019-05-26T06:05:09.064Z,16.72
2019-05-26T06:07:38.427Z,17.53
2019-05-26T06:10:09.819Z,18.30
2019-05-26T06:12:39.174Z,18.78
2019-05-26T06:15:12.831Z,19.23
2019-05-26T06:17:42.690Z,19.57
2019-05-26T06:20:12.891Z,19.83
2019-05-26T06:22:42.277Z,20.14
2019-05-26T06:25:11.690Z,20.31
2019-05-26T06:27:41.061Z,20.50
2019-05-26T06:30:10.895Z,20.37
2019-05-26T06:32:40.250Z,20.45
2019-05-26T06:35:09.797Z,20.27
2019-05-26T06:37:39.167Z,20.28
2019-05-26T06:40:08.978Z,20.21
2019-05-26T06:42:38.348Z,19.94
2019-05-26T06:45:08.475Z,19.68
2019-05-26T06:47:37.828Z,19.48
2019-05-26T06:50:07.744Z,19.95
2019-05-26T06:52:37.113Z,20.17
2019-05-26T06:55:07.408Z,20.56
2019-05-26T06:57:36.817Z,21.28
2019-05-26T07:00:06.832Z,22.08
2019-05-26T07:02:36.191Z,22.23
2019-05-26T07:05:07.090Z,22.15
2019-05-26T07:07:36.476Z,22.56
2019-05-26T07:10:08.270Z,23.61
2019-05-26T07:12:37.994Z,23.84
2019-05-26T07:15:08.473Z,24.04
2019-05-26T07:17:38.815Z,24.70
2019-05-26T07:20:08.739Z,25.15
2019-05-26T07:22:38.135Z,25.47
2019-05-26T07:25:09.032Z,26.22
2019-05-26T07:27:38.389Z,26.62
2019-05-26T07:30:10.086Z,26.87
2019-05-26T07:32:39.560Z,26.18
2019-05-26T07:35:09.052Z,25.25
2019-05-26T07:37:38.395Z,24.85
2019-05-26T07:40:08.105Z,25.27
2019-05-26T07:42:37.492Z,26.12
2019-05-26T07:45:08.890Z,26.97
2019-05-26T07:47:38.294Z,27.65
2019-05-26T07:50:08.808Z,28.04
2019-05-26T07:52:38.200Z,28.76
2019-05-26T07:55:07.999Z,29.16
2019-05-26T07:57:37.366Z,29.67
2019-05-26T08:00:07.846Z,30.09
2019-05-26T08:02:37.212Z,29.72
2019-05-26T08:05:07.647Z,28.41
2019-05-26T08:07:37.029Z,28.02
2019-05-26T08:10:07.259Z,27.43
2019-05-26T08:12:36.575Z,26.90
2019-05-26T08:15:06.891Z,26.33
2019-05-26T08:17:36.255Z,25.58
2019-05-26T08:20:11.748Z,24.82
2019-05-26T08:22:41.110Z,24.22
2019-05-26T08:25:10.807Z,23.76
2019-05-26T08:27:40.187Z,23.33
2019-05-26T08:30:10.107Z,23.04
2019-05-26T08:32:39.455Z,22.88
2019-05-26T08:35:08.987Z,22.71
2019-05-26T08:37:38.371Z,22.52
2019-05-26T08:40:20.316Z,22.40
2019-05-26T08:42:50.869Z,22.34
2019-05-26T08:45:22.811Z,22.20
2019-05-26T08:47:52.606Z,22.12
2019-05-26T08:50:22.441Z,22.09
2019-05-26T08:52:51.892Z,21.86
2019-05-26T08:55:21.862Z,21.65
2019-05-26T08:57:51.242Z,21.54
2019-05-26T09:00:21.136Z,21.40
2019-05-26T09:02:50.534Z,21.24
2019-05-26T09:05:19.988Z,21.22
2019-05-26T09:07:49.318Z,21.09
2019-05-26T09:10:18.827Z,20.92
2019-05-26T09:13:00.353Z,20.78
2019-05-26T09:15:20.516Z,20.73
2019-05-26T09:17:49.862Z,20.58
2019-05-26T09:20:19.568Z,20.40
2019-05-26T09:22:48.932Z,20.38
2019-05-26T09:25:18.674Z,20.35
2019-05-26T09:27:47.999Z,20.35
2019-05-26T09:30:17.905Z,20.31
2019-05-26T09:32:47.273Z,20.33
2019-05-26T09:35:17.768Z,20.43
2019-05-26T09:37:47.120Z,20.51
2019-05-26T09:40:16.810Z,20.62
2019-05-26T09:42:46.183Z,20.75
2019-05-26T09:45:16.261Z,20.82
2019-05-26T09:47:45.638Z,20.92
2019-05-26T09:50:16.120Z,20.93
2019-05-26T09:52:45.478Z,20.98
2019-05-26T09:55:17.329Z,21.04
2019-05-26T09:57:46.714Z,21.16
2019-05-26T10:00:16.578Z,21.16
2019-05-26T10:02:45.957Z,21.20
2019-05-26T10:05:15.389Z,21.21
2019-05-26T10:07:44.754Z,21.24
2019-05-26T10:10:14.442Z,21.31
2019-05-26T10:12:43.820Z,21.44
2019-05-26T10:15:13.728Z,21.60
2019-05-26T10:17:43.132Z,21.62
2019-05-26T10:20:12.590Z,21.56
2019-05-26T10:22:41.929Z,21.61
2019-05-26T10:25:11.646Z,21.69
2019-05-26T10:27:41.005Z,21.79
2019-05-26T10:30:12.699Z,21.85
2019-05-26T10:32:42.063Z,21.85
2019-05-26T10:35:11.912Z,21.92
2019-05-26T10:37:41.347Z,21.97
2019-05-26T10:40:12.368Z,22.02
2019-05-26T10:42:41.725Z,22.09
2019-05-26T10:45:12.443Z,22.15
2019-05-26T10:47:41.853Z,22.43
2019-05-26T10:50:12.067Z,22.70
2019-05-26T10:52:41.411Z,22.80
2019-05-26T10:55:11.320Z,22.91
2019-05-26T10:57:40.809Z,23.05
2019-05-26T11:00:10.999Z,23.22
2019-05-26T11:02:40.352Z,23.39
2019-05-26T11:05:09.986Z,23.50
2019-05-26T11:07:39.368Z,23.51
2019-05-26T11:10:09.247Z,23.57
2019-05-26T11:12:38.612Z,23.56
2019-05-26T11:15:09.310Z,23.68
2019-05-26T11:17:38.689Z,23.74
2019-05-26T11:20:09.384Z,23.71
2019-05-26T11:22:38.759Z,23.67
2019-05-26T11:25:09.277Z,23.58
2019-05-26T11:27:38.715Z,23.57
2019-05-26T11:30:11.084Z,23.36
2019-05-26T11:32:40.473Z,23.23
2019-05-26T11:35:10.282Z,23.16
2019-05-26T11:37:39.635Z,23.13
2019-05-26T11:40:09.640Z,23.06
2019-05-26T11:42:38.996Z,22.96
2019-05-26T11:45:09.533Z,23.01
2019-05-26T11:47:38.919Z,23.13
2019-05-26T11:50:08.617Z,23.23
2019-05-26T11:52:37.997Z,23.34
2019-05-26T11:55:07.885Z,23.43
2019-05-26T11:57:37.744Z,23.42
2019-05-26T12:00:09.582Z,23.34
2019-05-26T12:02:39.469Z,23.51
2019-05-26T12:05:09.773Z,23.64
2019-05-26T12:07:39.143Z,23.65
2019-05-26T12:10:13.679Z,23.66
2019-05-26T12:12:40.313Z,23.63
2019-05-26T12:15:10.130Z,23.67
2019-05-26T12:17:39.473Z,23.69
2019-05-26T12:20:10.053Z,23.68
2019-05-26T12:22:39.392Z,23.62
2019-05-26T12:25:09.316Z,23.51
2019-05-26T12:27:38.784Z,23.48
2019-05-26T12:30:09.621Z,23.58
2019-05-26T12:32:38.981Z,23.62
2019-05-26T12:35:09.322Z,23.69
2019-05-26T12:37:38.677Z,23.78
2019-05-26T12:40:08.796Z,23.78
2019-05-26T12:42:38.211Z,23.93
2019-05-26T12:45:09.196Z,23.99
2019-05-26T12:47:38.796Z,23.90
2019-05-26T12:50:09.212Z,23.88
2019-05-26T12:52:38.686Z,23.89
2019-05-26T12:55:09.898Z,23.84
2019-05-26T12:57:39.466Z,23.91
2019-05-26T13:00:09.949Z,23.95
2019-05-26T13:02:39.315Z,23.98
2019-05-26T13:05:09.231Z,23.99
2019-05-26T13:07:38.757Z,24.02
2019-05-26T13:10:08.976Z,23.91
2019-05-26T13:12:38.342Z,23.94
2019-05-26T13:15:10.102Z,23.90
2019-05-26T13:17:39.655Z,23.86
2019-05-26T13:20:10.072Z,23.97
2019-05-26T13:22:40.440Z,23.95
2019-05-26T13:25:11.163Z,23.83
2019-05-26T13:27:40.561Z,23.82
2019-05-26T13:30:18.813Z,23.85
2019-05-26T13:32:48.169Z,23.83
2019-05-26T13:35:17.970Z,23.84
2019-05-26T13:37:47.335Z,23.84
2019-05-26T13:40:17.063Z,23.82
2019-05-26T13:42:46.414Z,23.77
2019-05-26T13:45:22.592Z,23.71
2019-05-26T13:47:47.187Z,23.65
2019-05-26T13:50:17.208Z,23.56
2019-05-26T13:52:46.695Z,23.54
2019-05-26T13:55:17.331Z,23.52
2019-05-26T13:57:49.419Z,23.50
2019-05-26T14:00:18.320Z,23.48
2019-05-26T14:02:47.979Z,23.48
2019-05-26T14:05:17.706Z,23.53
2019-05-26T14:07:47.063Z,23.52
2019-05-26T14:10:19.475Z,23.51
2019-05-26T14:12:48.832Z,23.51
2019-05-26T14:15:18.356Z,23.51
2019-05-26T14:17:48.151Z,23.48
2019-05-26T14:20:20.561Z,23.40
2019-05-26T14:22:49.954Z,23.30
2019-05-26T14:25:19.319Z,23.24
2019-05-26T14:27:48.815Z,23.18
2019-05-26T14:30:18.345Z,23.13
2019-05-26T14:32:47.740Z,23.05
2019-05-26T14:35:17.127Z,23.03
2019-05-26T14:37:46.493Z,22.99
2019-05-26T14:40:17.539Z,23.01
2019-05-26T14:42:46.903Z,23.01
2019-05-26T14:45:16.913Z,22.95
2019-05-26T14:47:46.328Z,22.92
2019-05-26T14:50:16.638Z,22.90
2019-05-26T14:52:46.197Z,22.84
2019-05-26T14:55:15.794Z,22.72
2019-05-26T14:57:45.238Z,22.69
2019-05-26T15:00:16.410Z,22.64
2019-05-26T15:02:45.796Z,22.54
2019-05-26T15:05:15.384Z,22.45
2019-05-26T15:07:44.756Z,22.37
2019-05-26T15:10:14.652Z,22.36
2019-05-26T15:12:44.030Z,22.31
2019-05-26T15:15:13.770Z,22.25
2019-05-26T15:17:43.141Z,22.20
2019-05-26T15:22:40.896Z,22.08
2019-05-26T15:25:10.637Z,22.07
2019-05-26T15:27:40.002Z,22.05
2019-05-26T15:30:10.978Z,21.97
2019-05-26T15:32:40.336Z,21.87
2019-05-26T15:35:11.040Z,21.84
2019-05-26T15:37:40.405Z,21.79
2019-05-26T15:40:10.199Z,21.78
2019-05-26T15:42:39.559Z,21.80
2019-05-26T15:45:10.709Z,21.80
2019-05-26T15:47:40.073Z,21.80
2019-05-26T15:50:12.840Z,21.82
2019-05-26T15:52:40.749Z,21.80
2019-05-26T15:55:10.534Z,21.77
2019-05-26T15:57:39.900Z,21.74
2019-05-26T16:00:09.825Z,21.72
2019-05-26T16:02:39.184Z,21.73
2019-05-26T16:05:09.067Z,21.73
2019-05-26T16:07:38.454Z,21.76
2019-05-26T16:10:09.703Z,21.80
2019-05-26T16:12:39.180Z,21.79
2019-05-26T16:15:09.474Z,21.76
2019-05-26T16:17:39.341Z,21.76
2019-05-26T16:20:09.549Z,21.78
2019-05-26T16:22:39.018Z,21.82
2019-05-26T16:25:08.894Z,21.80
2019-05-26T16:27:38.263Z,21.69
2019-05-26T16:30:09.347Z,21.64
2019-05-26T16:32:38.711Z,21.61
2019-05-26T16:35:08.722Z,21.56
2019-05-26T16:37:38.085Z,21.54
2019-05-26T16:40:07.798Z,21.50
2019-05-26T16:42:37.179Z,21.51
2019-05-26T16:45:07.983Z,21.51
2019-05-26T16:47:37.349Z,21.57
2019-05-26T16:50:08.737Z,21.63
2019-05-26T16:52:38.087Z,21.63
2019-05-26T16:55:08.292Z,21.72
2019-05-26T16:57:37.732Z,21.78
2019-05-26T17:00:10.564Z,21.75
2019-05-26T17:02:39.994Z,21.74
2019-05-26T17:05:09.423Z,21.74
2019-05-26T17:07:38.771Z,21.75
2019-05-26T17:10:09.079Z,21.75
2019-05-26T17:12:38.456Z,21.77
2019-05-26T17:15:08.187Z,21.77
2019-05-26T17:17:37.544Z,21.70
2019-05-26T17:20:08.233Z,21.61
2019-05-26T17:22:37.665Z,21.50
2019-05-26T17:25:07.530Z,21.45
2019-05-26T17:27:36.943Z,21.37
2019-05-26T17:30:09.431Z,21.29
2019-05-26T17:32:38.799Z,21.25
2019-05-26T17:35:09.969Z,21.22
2019-05-26T17:37:39.329Z,21.20
2019-05-26T17:40:08.839Z,21.20
2019-05-26T17:42:38.189Z,21.19
2019-05-26T17:45:07.887Z,21.15
2019-05-26T17:47:37.260Z,21.12
2019-05-26T17:50:07.464Z,21.08
2019-05-26T17:52:37.080Z,21.07
2019-05-26T17:55:08.574Z,21.07
2019-05-26T17:57:37.915Z,21.02
2019-05-26T18:00:11.915Z,20.97
2019-05-26T18:02:41.285Z,20.92
2019-05-26T18:05:11.387Z,20.87
2019-05-26T18:07:41.827Z,20.79
2019-05-26T18:10:12.686Z,20.74
2019-05-26T18:12:42.064Z,20.69
2019-05-26T18:15:12.188Z,20.63
2019-05-26T18:17:47.274Z,20.57
2019-05-26T18:20:12.855Z,20.50
2019-05-26T18:22:42.254Z,20.43
2019-05-26T18:25:11.777Z,20.37
2019-05-26T18:27:41.124Z,20.32
2019-05-26T18:30:11.259Z,20.24
2019-05-26T18:32:40.593Z,20.16
2019-05-26T18:35:10.501Z,20.10
2019-05-26T18:37:39.851Z,20.02
2019-05-26T18:40:10.174Z,19.95
2019-05-26T18:42:39.613Z,19.86
2019-05-26T18:45:09.813Z,19.77
2019-05-26T18:47:39.194Z,19.69
2019-05-26T18:50:08.905Z,19.63
2019-05-26T18:52:38.330Z,19.54
2019-05-26T18:55:09.385Z,19.44
2019-05-26T18:57:38.733Z,19.35
2019-05-26T19:00:09.447Z,19.24
2019-05-26T19:02:39.836Z,19.16
2019-05-26T19:05:09.452Z,19.09
2019-05-26T19:07:38.887Z,19.00
2019-05-26T19:10:09.072Z,18.92
2019-05-26T19:12:38.421Z,18.85
2019-05-26T19:15:09.612Z,18.77
2019-05-26T19:17:39.029Z,18.68
2019-05-26T19:20:16.044Z,18.59
2019-05-26T19:22:41.558Z,18.52
2019-05-26T19:25:11.168Z,18.46
2019-05-26T19:27:40.519Z,18.41
2019-05-26T19:30:11.828Z,18.37
2019-05-26T19:32:41.178Z,18.33
2019-05-26T19:35:10.834Z,18.34
2019-05-26T19:37:40.225Z,18.38
2019-05-26T19:40:10.728Z,18.45
2019-05-26T19:42:40.097Z,18.51
2019-05-26T19:45:09.589Z,18.55
2019-05-26T19:47:40.020Z,18.59
2019-05-26T19:50:09.809Z,18.61
2019-05-26T19:52:39.190Z,18.65
2019-05-26T19:55:08.669Z,18.68
2019-05-26T19:57:39.056Z,18.71
2019-05-26T20:00:13.790Z,18.72
2019-05-26T20:02:43.222Z,18.72
2019-05-26T20:05:14.523Z,18.71
2019-05-26T20:07:43.938Z,18.69
2019-05-26T20:10:13.732Z,18.67
2019-05-26T20:12:43.083Z,18.65
2019-05-26T20:15:12.766Z,18.65
2019-05-26T20:17:42.219Z,18.61
2019-05-26T20:20:13.012Z,18.61
2019-05-26T20:22:42.375Z,18.57
2019-05-26T20:25:12.165Z,18.55
2019-05-26T20:27:41.537Z,18.53
2019-05-26T20:30:11.037Z,18.48
2019-05-26T20:32:40.395Z,18.44
2019-05-26T20:35:10.190Z,18.41
2019-05-26T20:37:39.571Z,18.37
2019-05-26T20:40:10.110Z,18.31
2019-05-26T20:42:39.440Z,18.25
2019-05-26T20:45:10.035Z,18.21
2019-05-26T20:47:39.395Z,18.17
2019-05-26T20:50:09.271Z,18.13
2019-05-26T20:52:38.668Z,18.11
2019-05-26T20:55:09.273Z,18.06
2019-05-26T20:57:38.619Z,18.00
2019-05-26T21:00:13.043Z,17.92
2019-05-26T21:02:43.105Z,17.82
2019-05-26T21:05:12.714Z,17.71
2019-05-26T21:07:42.111Z,17.59
2019-05-26T21:10:12.627Z,17.48
2019-05-26T21:12:41.985Z,17.37
2019-05-26T21:15:12.220Z,17.27
2019-05-26T21:17:41.579Z,17.17
2019-05-26T21:20:11.207Z,17.08
2019-05-26T21:22:40.560Z,16.99
2019-05-26T21:25:11.344Z,16.90
2019-05-26T21:27:40.716Z,16.81
2019-05-26T21:30:10.799Z,16.73
2019-05-26T21:32:40.185Z,16.65
2019-05-26T21:35:09.668Z,16.59
2019-05-26T21:37:39.032Z,16.52
2019-05-26T21:40:09.133Z,16.45
2019-05-26T21:42:38.646Z,16.36
2019-05-26T21:45:08.246Z,16.30
2019-05-26T21:47:37.689Z,16.23
2019-05-26T21:50:09.735Z,16.19
2019-05-26T21:52:40.168Z,16.14
2019-05-26T21:55:10.448Z,16.09
2019-05-26T21:57:39.809Z,16.05
2019-05-26T22:00:12.252Z,16.02
2019-05-26T22:02:43.246Z,16.04
2019-05-26T22:05:12.954Z,16.08
2019-05-26T22:07:42.343Z,16.14
2019-05-26T22:10:11.895Z,16.19
2019-05-26T22:12:41.430Z,16.21
2019-05-26T22:15:11.537Z,16.20
2019-05-26T22:17:40.909Z,16.21
2019-05-26T22:20:11.265Z,16.19
2019-05-26T22:22:40.699Z,16.20
2019-05-26T22:25:11.696Z,16.21
2019-05-26T22:27:41.056Z,16.21
2019-05-26T22:30:11.665Z,16.22
2019-05-26T22:32:41.029Z,16.23
2019-05-26T22:35:10.652Z,16.24
2019-05-26T22:37:40.000Z,16.25
2019-05-26T22:40:09.998Z,16.26
2019-05-26T22:42:39.370Z,16.27
2019-05-26T22:45:10.760Z,16.28
2019-05-26T22:47:40.091Z,16.28
2019-05-26T22:50:11.273Z,16.29
2019-05-26T22:52:40.747Z,16.29
2019-05-26T22:55:10.435Z,16.31
2019-05-26T22:57:39.784Z,16.32
2019-05-26T23:00:12.335Z,16.34
2019-05-26T23:02:41.722Z,16.34
2019-05-26T23:05:11.409Z,16.34
2019-05-26T23:07:40.786Z,16.35
2019-05-26T23:10:11.016Z,16.36
2019-05-26T23:12:41.314Z,16.36
2019-05-26T23:15:11.246Z,16.38
2019-05-26T23:17:40.597Z,16.35
2019-05-26T23:20:11.292Z,16.32
2019-05-26T23:22:40.672Z,16.28
2019-05-26T23:25:10.626Z,16.26
2019-05-26T23:27:39.997Z,16.22
2019-05-26T23:30:09.878Z,16.17
2019-05-26T23:32:39.253Z,16.15
2019-05-26T23:35:08.836Z,16.14
2019-05-26T23:37:38.218Z,16.17
2019-05-26T23:40:08.455Z,16.18
2019-05-26T23:42:37.829Z,16.13
2019-05-26T23:45:07.718Z,16.03
2019-05-26T23:47:37.225Z,15.98
2019-05-26T23:50:08.096Z,15.94
2019-05-26T23:52:37.533Z,15.92
2019-05-26T23:55:10.117Z,15.88
2019-05-26T23:57:39.514Z,15.85
